sensor_id;sensor_type;location;lat;lon;timestamp;P1;durP1;ratioP1;P2;durP2;ratioP2
27558;SDS011;15002;52.028;5.670;2023-08-30T00:02:23;9.98;;;7.53;;
27558;SDS011;15002;52.028;5.670;2023-08-30T00:04:49;12.07;;;8.23;;
27558;SDS011;15002;52.028;5.670;2023-08-30T00:07:14;9.43;;;7.80;;
27558;SDS011;15002;52.028;5.670;2023-08-30T00:09:40;9.32;;;8.02;;
27558;SDS011;15002;52.028;5.670;2023-08-30T00:12:06;10.35;;;7.80;;
27558;SDS011;15002;52.028;5.670;2023-08-30T00:14:31;9.18;;;7.50;;
27558;SDS011;15002;52.028;5.670;2023-08-30T00:16:57;9.98;;;7.43;;
27558;SDS011;15002;52.028;5.670;2023-08-30T00:19:23;10.48;;;8.05;;
27558;SDS011;15002;52.028;5.670;2023-08-30T00:21:49;11.20;;;8.10;;
27558;SDS011;15002;52.028;5.670;2023-08-30T00:24:14;13.35;;;8.07;;
27558;SDS011;15002;52.028;5.670;2023-08-30T00:26:40;12.30;;;8.95;;
27558;SDS011;15002;52.028;5.670;2023-08-30T00:29:05;13.73;;;8.40;;
27558;SDS011;15002;52.028;5.670;2023-08-30T00:31:31;11.05;;;8.10;;
27558;SDS011;15002;52.028;5.670;2023-08-30T00:33:57;10.43;;;8.35;;
27558;SDS011;15002;52.028;5.670;2023-08-30T00:36:22;12.20;;;8.32;;
27558;SDS011;15002;52.028;5.670;2023-08-30T00:38:48;11.20;;;8.18;;
27558;SDS011;15002;52.028;5.670;2023-08-30T00:41:14;13.82;;;8.15;;
27558;SDS011;15002;52.028;5.670;2023-08-30T00:43:40;9.95;;;8.10;;
27558;SDS011;15002;52.028;5.670;2023-08-30T00:46:05;12.02;;;8.35;;
27558;SDS011;15002;52.028;5.670;2023-08-30T00:48:31;10.77;;;8.10;;
27558;SDS011;15002;52.028;5.670;2023-08-30T00:50:56;12.90;;;7.70;;
27558;SDS011;15002;52.028;5.670;2023-08-30T00:53:22;11.10;;;8.55;;
27558;SDS011;15002;52.028;5.670;2023-08-30T00:55:48;11.18;;;8.82;;
27558;SDS011;15002;52.028;5.670;2023-08-30T00:58:14;10.77;;;7.80;;
27558;SDS011;15002;52.028;5.670;2023-08-30T01:00:40;10.48;;;8.38;;
27558;SDS011;15002;52.028;5.670;2023-08-30T01:03:05;11.95;;;8.90;;
27558;SDS011;15002;52.028;5.670;2023-08-30T01:05:34;8.90;;;7.95;;
27558;SDS011;15002;52.028;5.670;2023-08-30T01:08:00;13.15;;;8.13;;
27558;SDS011;15002;52.028;5.670;2023-08-30T01:13:18;12.98;;;8.80;;
27558;SDS011;15002;52.028;5.670;2023-08-30T01:15:46;12.10;;;8.57;;
27558;SDS011;15002;52.028;5.670;2023-08-30T01:18:14;11.65;;;8.70;;
27558;SDS011;15002;52.028;5.670;2023-08-30T01:20:43;9.90;;;8.05;;
27558;SDS011;15002;52.028;5.670;2023-08-30T01:23:16;11.73;;;8.68;;
27558;SDS011;15002;52.028;5.670;2023-08-30T01:28:24;11.90;;;8.77;;
27558;SDS011;15002;52.028;5.670;2023-08-30T01:30:53;11.60;;;8.73;;
27558;SDS011;15002;52.028;5.670;2023-08-30T01:33:20;11.50;;;8.18;;
27558;SDS011;15002;52.028;5.670;2023-08-30T01:35:46;13.65;;;8.05;;
27558;SDS011;15002;52.028;5.670;2023-08-30T01:38:12;9.50;;;7.65;;
27558;SDS011;15002;52.028;5.670;2023-08-30T01:40:39;10.85;;;8.68;;
27558;SDS011;15002;52.028;5.670;2023-08-30T01:43:07;10.77;;;8.20;;
27558;SDS011;15002;52.028;5.670;2023-08-30T01:45:36;10.43;;;8.25;;
27558;SDS011;15002;52.028;5.670;2023-08-30T01:48:05;11.65;;;8.10;;
27558;SDS011;15002;52.028;5.670;2023-08-30T01:50:33;10.40;;;8.32;;
27558;SDS011;15002;52.028;5.670;2023-08-30T01:52:59;13.90;;;8.85;;
27558;SDS011;15002;52.028;5.670;2023-08-30T01:55:26;14.05;;;9.10;;
27558;SDS011;15002;52.028;5.670;2023-08-30T01:57:54;12.25;;;9.68;;
27558;SDS011;15002;52.028;5.670;2023-08-30T02:00:20;12.00;;;9.43;;
27558;SDS011;15002;52.028;5.670;2023-08-30T02:02:46;14.57;;;9.55;;
27558;SDS011;15002;52.028;5.670;2023-08-30T02:05:13;14.63;;;8.90;;
27558;SDS011;15002;52.028;5.670;2023-08-30T02:10:15;15.73;;;9.48;;
27558;SDS011;15002;52.028;5.670;2023-08-30T02:12:47;13.35;;;9.82;;
27558;SDS011;15002;52.028;5.670;2023-08-30T02:15:16;14.23;;;10.00;;
27558;SDS011;15002;52.028;5.670;2023-08-30T02:17:43;13.00;;;9.90;;
27558;SDS011;15002;52.028;5.670;2023-08-30T02:20:09;15.15;;;9.93;;
27558;SDS011;15002;52.028;5.670;2023-08-30T02:22:35;14.63;;;10.10;;
27558;SDS011;15002;52.028;5.670;2023-08-30T02:25:01;12.65;;;9.65;;
27558;SDS011;15002;52.028;5.670;2023-08-30T02:27:30;14.27;;;10.57;;
27558;SDS011;15002;52.028;5.670;2023-08-30T02:29:56;13.48;;;9.60;;
27558;SDS011;15002;52.028;5.670;2023-08-30T02:32:22;13.07;;;9.95;;
27558;SDS011;15002;52.028;5.670;2023-08-30T02:34:50;15.55;;;10.70;;
27558;SDS011;15002;52.028;5.670;2023-08-30T02:37:16;12.90;;;9.95;;
27558;SDS011;15002;52.028;5.670;2023-08-30T02:39:42;12.27;;;9.68;;
27558;SDS011;15002;52.028;5.670;2023-08-30T02:42:08;14.20;;;10.05;;
27558;SDS011;15002;52.028;5.670;2023-08-30T02:44:33;15.90;;;9.93;;
27558;SDS011;15002;52.028;5.670;2023-08-30T02:46:59;13.65;;;9.85;;
27558;SDS011;15002;52.028;5.670;2023-08-30T02:49:24;13.25;;;9.80;;
27558;SDS011;15002;52.028;5.670;2023-08-30T02:51:50;14.15;;;9.50;;
27558;SDS011;15002;52.028;5.670;2023-08-30T02:54:16;14.23;;;10.05;;
27558;SDS011;15002;52.028;5.670;2023-08-30T02:56:42;15.88;;;10.52;;
27558;SDS011;15002;52.028;5.670;2023-08-30T02:59:09;14.55;;;10.13;;
27558;SDS011;15002;52.028;5.670;2023-08-30T03:01:36;13.38;;;9.88;;
27558;SDS011;15002;52.028;5.670;2023-08-30T03:04:04;13.30;;;10.38;;
27558;SDS011;15002;52.028;5.670;2023-08-30T03:06:32;17.65;;;11.23;;
27558;SDS011;15002;52.028;5.670;2023-08-30T03:08:57;14.38;;;10.45;;
27558;SDS011;15002;52.028;5.670;2023-08-30T03:11:23;15.15;;;10.68;;
27558;SDS011;15002;52.028;5.670;2023-08-30T03:13:49;14.43;;;10.63;;
27558;SDS011;15002;52.028;5.670;2023-08-30T03:16:15;13.32;;;11.00;;
27558;SDS011;15002;52.028;5.670;2023-08-30T03:18:42;14.85;;;10.43;;
27558;SDS011;15002;52.028;5.670;2023-08-30T03:21:08;14.90;;;10.10;;
27558;SDS011;15002;52.028;5.670;2023-08-30T03:23:34;14.43;;;10.48;;
27558;SDS011;15002;52.028;5.670;2023-08-30T03:26:07;14.40;;;9.93;;
27558;SDS011;15002;52.028;5.670;2023-08-30T03:28:37;13.35;;;10.25;;
27558;SDS011;15002;52.028;5.670;2023-08-30T03:31:21;13.25;;;9.73;;
27558;SDS011;15002;52.028;5.670;2023-08-30T03:33:48;15.43;;;9.98;;
27558;SDS011;15002;52.028;5.670;2023-08-30T03:36:14;12.40;;;9.45;;
27558;SDS011;15002;52.028;5.670;2023-08-30T03:38:43;13.95;;;9.68;;
27558;SDS011;15002;52.028;5.670;2023-08-30T03:41:10;14.63;;;10.63;;
27558;SDS011;15002;52.028;5.670;2023-08-30T03:43:36;16.40;;;10.63;;
27558;SDS011;15002;52.028;5.670;2023-08-30T03:46:01;15.25;;;10.93;;
27558;SDS011;15002;52.028;5.670;2023-08-30T03:48:28;14.93;;;10.95;;
27558;SDS011;15002;52.028;5.670;2023-08-30T03:50:54;16.45;;;10.60;;
27558;SDS011;15002;52.028;5.670;2023-08-30T03:53:21;16.40;;;11.50;;
27558;SDS011;15002;52.028;5.670;2023-08-30T03:55:46;17.75;;;11.10;;
27558;SDS011;15002;52.028;5.670;2023-08-30T03:58:12;16.30;;;11.13;;
27558;SDS011;15002;52.028;5.670;2023-08-30T04:00:38;18.10;;;11.80;;
27558;SDS011;15002;52.028;5.670;2023-08-30T04:03:04;17.30;;;11.52;;
27558;SDS011;15002;52.028;5.670;2023-08-30T04:05:34;16.30;;;10.93;;
27558;SDS011;15002;52.028;5.670;2023-08-30T04:08:01;18.45;;;11.90;;
27558;SDS011;15002;52.028;5.670;2023-08-30T04:10:27;15.35;;;11.55;;
27558;SDS011;15002;52.028;5.670;2023-08-30T04:12:53;16.55;;;12.02;;
27558;SDS011;15002;52.028;5.670;2023-08-30T04:15:18;17.75;;;12.93;;
27558;SDS011;15002;52.028;5.670;2023-08-30T04:17:44;18.27;;;12.50;;
27558;SDS011;15002;52.028;5.670;2023-08-30T04:20:10;17.73;;;12.10;;
27558;SDS011;15002;52.028;5.670;2023-08-30T04:22:36;18.60;;;12.75;;
27558;SDS011;15002;52.028;5.670;2023-08-30T04:25:03;18.90;;;12.45;;
27558;SDS011;15002;52.028;5.670;2023-08-30T04:27:29;17.65;;;11.93;;
27558;SDS011;15002;52.028;5.670;2023-08-30T04:29:55;19.20;;;12.05;;
27558;SDS011;15002;52.028;5.670;2023-08-30T04:32:21;17.00;;;11.48;;
27558;SDS011;15002;52.028;5.670;2023-08-30T04:34:47;17.42;;;11.38;;
27558;SDS011;15002;52.028;5.670;2023-08-30T04:37:12;16.15;;;10.90;;
27558;SDS011;15002;52.028;5.670;2023-08-30T04:39:39;15.27;;;10.70;;
27558;SDS011;15002;52.028;5.670;2023-08-30T04:42:05;17.67;;;11.50;;
27558;SDS011;15002;52.028;5.670;2023-08-30T04:44:31;17.50;;;11.10;;
27558;SDS011;15002;52.028;5.670;2023-08-30T04:46:57;15.25;;;11.10;;
27558;SDS011;15002;52.028;5.670;2023-08-30T04:49:22;14.35;;;10.43;;
27558;SDS011;15002;52.028;5.670;2023-08-30T04:51:50;16.23;;;10.65;;
27558;SDS011;15002;52.028;5.670;2023-08-30T04:54:16;19.13;;;10.77;;
27558;SDS011;15002;52.028;5.670;2023-08-30T04:56:41;16.73;;;10.43;;
27558;SDS011;15002;52.028;5.670;2023-08-30T04:59:07;17.08;;;10.77;;
27558;SDS011;15002;52.028;5.670;2023-08-30T05:01:33;16.65;;;10.85;;
27558;SDS011;15002;52.028;5.670;2023-08-30T05:03:58;14.77;;;10.40;;
27558;SDS011;15002;52.028;5.670;2023-08-30T05:06:24;14.40;;;10.35;;
27558;SDS011;15002;52.028;5.670;2023-08-30T05:08:50;16.95;;;11.57;;
27558;SDS011;15002;52.028;5.670;2023-08-30T05:11:15;15.27;;;11.13;;
27558;SDS011;15002;52.028;5.670;2023-08-30T05:13:41;17.60;;;11.55;;
27558;SDS011;15002;52.028;5.670;2023-08-30T05:16:07;17.48;;;11.20;;
27558;SDS011;15002;52.028;5.670;2023-08-30T05:18:32;17.92;;;10.88;;
27558;SDS011;15002;52.028;5.670;2023-08-30T05:20:58;15.27;;;10.60;;
27558;SDS011;15002;52.028;5.670;2023-08-30T05:23:24;16.88;;;11.45;;
27558;SDS011;15002;52.028;5.670;2023-08-30T05:25:49;18.35;;;11.48;;
27558;SDS011;15002;52.028;5.670;2023-08-30T05:28:15;19.50;;;11.15;;
27558;SDS011;15002;52.028;5.670;2023-08-30T05:30:41;18.63;;;11.07;;
27558;SDS011;15002;52.028;5.670;2023-08-30T05:33:08;14.88;;;10.73;;
27558;SDS011;15002;52.028;5.670;2023-08-30T05:35:34;20.38;;;11.15;;
27558;SDS011;15002;52.028;5.670;2023-08-30T05:38:00;17.67;;;11.25;;
27558;SDS011;15002;52.028;5.670;2023-08-30T05:40:25;17.17;;;11.05;;
27558;SDS011;15002;52.028;5.670;2023-08-30T05:42:51;14.93;;;10.70;;
27558;SDS011;15002;52.028;5.670;2023-08-30T05:45:17;18.25;;;11.27;;
27558;SDS011;15002;52.028;5.670;2023-08-30T05:47:42;15.65;;;10.98;;
27558;SDS011;15002;52.028;5.670;2023-08-30T05:50:08;19.90;;;11.25;;
27558;SDS011;15002;52.028;5.670;2023-08-30T05:52:34;15.70;;;10.52;;
27558;SDS011;15002;52.028;5.670;2023-08-30T05:55:00;14.70;;;10.75;;
27558;SDS011;15002;52.028;5.670;2023-08-30T05:57:25;15.30;;;10.38;;
27558;SDS011;15002;52.028;5.670;2023-08-30T05:59:52;17.20;;;10.48;;
27558;SDS011;15002;52.028;5.670;2023-08-30T06:02:18;16.55;;;10.38;;
27558;SDS011;15002;52.028;5.670;2023-08-30T06:04:43;15.93;;;10.38;;
27558;SDS011;15002;52.028;5.670;2023-08-30T06:07:09;19.98;;;10.82;;
27558;SDS011;15002;52.028;5.670;2023-08-30T06:09:35;13.50;;;10.13;;
27558;SDS011;15002;52.028;5.670;2023-08-30T06:12:00;15.90;;;10.57;;
27558;SDS011;15002;52.028;5.670;2023-08-30T06:14:26;16.27;;;10.48;;
27558;SDS011;15002;52.028;5.670;2023-08-30T06:16:52;15.30;;;11.30;;
27558;SDS011;15002;52.028;5.670;2023-08-30T06:19:18;15.13;;;11.18;;
27558;SDS011;15002;52.028;5.670;2023-08-30T06:21:43;14.75;;;10.43;;
27558;SDS011;15002;52.028;5.670;2023-08-30T06:24:09;15.27;;;10.70;;
27558;SDS011;15002;52.028;5.670;2023-08-30T06:26:34;14.18;;;11.35;;
27558;SDS011;15002;52.028;5.670;2023-08-30T06:29:00;17.48;;;11.32;;
27558;SDS011;15002;52.028;5.670;2023-08-30T06:31:26;15.82;;;11.85;;
27558;SDS011;15002;52.028;5.670;2023-08-30T06:33:52;17.10;;;11.85;;
27558;SDS011;15002;52.028;5.670;2023-08-30T06:36:18;15.18;;;11.82;;
27558;SDS011;15002;52.028;5.670;2023-08-30T06:38:44;16.02;;;11.73;;
27558;SDS011;15002;52.028;5.670;2023-08-30T06:41:09;19.50;;;11.70;;
27558;SDS011;15002;52.028;5.670;2023-08-30T06:43:35;17.52;;;11.75;;
27558;SDS011;15002;52.028;5.670;2023-08-30T06:46:02;17.42;;;11.85;;
27558;SDS011;15002;52.028;5.670;2023-08-30T06:48:28;16.35;;;11.77;;
27558;SDS011;15002;52.028;5.670;2023-08-30T06:50:56;18.63;;;11.52;;
27558;SDS011;15002;52.028;5.670;2023-08-30T06:53:23;17.45;;;12.40;;
27558;SDS011;15002;52.028;5.670;2023-08-30T06:56:00;18.38;;;11.95;;
27558;SDS011;15002;52.028;5.670;2023-08-30T06:58:26;16.25;;;11.77;;
27558;SDS011;15002;52.028;5.670;2023-08-30T07:00:52;20.60;;;12.13;;
27558;SDS011;15002;52.028;5.670;2023-08-30T07:03:18;16.55;;;12.18;;
27558;SDS011;15002;52.028;5.670;2023-08-30T07:05:45;17.63;;;12.20;;
27558;SDS011;15002;52.028;5.670;2023-08-30T07:08:13;18.48;;;12.20;;
27558;SDS011;15002;52.028;5.670;2023-08-30T07:10:39;18.80;;;13.18;;
27558;SDS011;15002;52.028;5.670;2023-08-30T07:13:05;21.25;;;13.65;;
27558;SDS011;15002;52.028;5.670;2023-08-30T07:15:35;19.33;;;12.73;;
27558;SDS011;15002;52.028;5.670;2023-08-30T07:18:04;16.92;;;12.32;;
27558;SDS011;15002;52.028;5.670;2023-08-30T07:20:31;19.50;;;13.73;;
27558;SDS011;15002;52.028;5.670;2023-08-30T07:22:57;21.00;;;13.20;;
27558;SDS011;15002;52.028;5.670;2023-08-30T07:25:22;18.83;;;13.05;;
27558;SDS011;15002;52.028;5.670;2023-08-30T07:27:49;17.83;;;12.50;;
27558;SDS011;15002;52.028;5.670;2023-08-30T07:30:14;18.85;;;13.82;;
27558;SDS011;15002;52.028;5.670;2023-08-30T07:32:40;20.85;;;13.45;;
27558;SDS011;15002;52.028;5.670;2023-08-30T07:35:06;20.02;;;12.85;;
27558;SDS011;15002;52.028;5.670;2023-08-30T07:37:32;18.52;;;13.25;;
27558;SDS011;15002;52.028;5.670;2023-08-30T07:39:57;20.67;;;13.13;;
27558;SDS011;15002;52.028;5.670;2023-08-30T07:42:23;19.75;;;12.52;;
27558;SDS011;15002;52.028;5.670;2023-08-30T07:44:49;18.52;;;12.77;;
27558;SDS011;15002;52.028;5.670;2023-08-30T07:47:14;18.30;;;12.30;;
27558;SDS011;15002;52.028;5.670;2023-08-30T07:49:40;17.15;;;11.68;;
27558;SDS011;15002;52.028;5.670;2023-08-30T07:52:06;18.98;;;12.98;;
27558;SDS011;15002;52.028;5.670;2023-08-30T07:54:35;18.23;;;12.68;;
27558;SDS011;15002;52.028;5.670;2023-08-30T07:57:02;14.30;;;11.07;;
27558;SDS011;15002;52.028;5.670;2023-08-30T07:59:28;18.10;;;11.70;;
27558;SDS011;15002;52.028;5.670;2023-08-30T08:01:54;19.40;;;12.52;;
27558;SDS011;15002;52.028;5.670;2023-08-30T08:04:20;19.40;;;12.75;;
27558;SDS011;15002;52.028;5.670;2023-08-30T08:06:46;18.38;;;12.80;;
27558;SDS011;15002;52.028;5.670;2023-08-30T08:09:12;17.20;;;13.00;;
27558;SDS011;15002;52.028;5.670;2023-08-30T08:11:38;15.63;;;11.80;;
27558;SDS011;15002;52.028;5.670;2023-08-30T08:14:08;17.52;;;12.32;;
27558;SDS011;15002;52.028;5.670;2023-08-30T08:16:37;19.65;;;11.85;;
27558;SDS011;15002;52.028;5.670;2023-08-30T08:19:02;18.73;;;11.50;;
27558;SDS011;15002;52.028;5.670;2023-08-30T08:21:28;22.05;;;12.30;;
27558;SDS011;15002;52.028;5.670;2023-08-30T08:23:54;16.95;;;11.88;;
27558;SDS011;15002;52.028;5.670;2023-08-30T08:26:19;17.58;;;11.57;;
27558;SDS011;15002;52.028;5.670;2023-08-30T08:28:45;17.60;;;10.43;;
27558;SDS011;15002;52.028;5.670;2023-08-30T08:31:11;17.00;;;10.35;;
27558;SDS011;15002;52.028;5.670;2023-08-30T08:33:36;15.38;;;10.50;;
27558;SDS011;15002;52.028;5.670;2023-08-30T08:36:02;16.50;;;9.60;;
27558;SDS011;15002;52.028;5.670;2023-08-30T08:38:28;17.05;;;9.65;;
27558;SDS011;15002;52.028;5.670;2023-08-30T08:40:54;13.10;;;9.57;;
27558;SDS011;15002;52.028;5.670;2023-08-30T08:43:28;16.13;;;9.40;;
27558;SDS011;15002;52.028;5.670;2023-08-30T08:45:55;19.25;;;10.63;;
27558;SDS011;15002;52.028;5.670;2023-08-30T08:48:25;13.80;;;9.48;;
27558;SDS011;15002;52.028;5.670;2023-08-30T08:50:53;15.02;;;9.82;;
27558;SDS011;15002;52.028;5.670;2023-08-30T08:53:19;14.65;;;10.20;;
27558;SDS011;15002;52.028;5.670;2023-08-30T08:55:45;16.88;;;10.02;;
27558;SDS011;15002;52.028;5.670;2023-08-30T08:58:12;13.85;;;9.93;;
27558;SDS011;15002;52.028;5.670;2023-08-30T09:00:40;15.98;;;10.07;;
27558;SDS011;15002;52.028;5.670;2023-08-30T09:03:09;15.13;;;10.75;;
27558;SDS011;15002;52.028;5.670;2023-08-30T09:05:37;14.38;;;10.43;;
27558;SDS011;15002;52.028;5.670;2023-08-30T09:08:04;14.65;;;11.18;;
27558;SDS011;15002;52.028;5.670;2023-08-30T09:10:33;17.75;;;11.18;;
27558;SDS011;15002;52.028;5.670;2023-08-30T09:13:00;14.38;;;10.88;;
27558;SDS011;15002;52.028;5.670;2023-08-30T09:15:32;14.85;;;11.43;;
27558;SDS011;15002;52.028;5.670;2023-08-30T09:17:59;14.25;;;10.57;;
27558;SDS011;15002;52.028;5.670;2023-08-30T09:20:25;16.75;;;12.07;;
27558;SDS011;15002;52.028;5.670;2023-08-30T09:22:50;16.40;;;12.38;;
27558;SDS011;15002;52.028;5.670;2023-08-30T09:25:23;15.65;;;12.68;;
27558;SDS011;15002;52.028;5.670;2023-08-30T09:27:51;15.80;;;12.07;;
27558;SDS011;15002;52.028;5.670;2023-08-30T09:30:22;18.33;;;12.07;;
27558;SDS011;15002;52.028;5.670;2023-08-30T09:32:48;15.77;;;11.98;;
27558;SDS011;15002;52.028;5.670;2023-08-30T09:35:14;16.50;;;12.55;;
27558;SDS011;15002;52.028;5.670;2023-08-30T09:37:39;15.30;;;11.68;;
27558;SDS011;15002;52.028;5.670;2023-08-30T09:40:06;14.07;;;11.60;;
27558;SDS011;15002;52.028;5.670;2023-08-30T09:42:32;16.65;;;11.45;;
27558;SDS011;15002;52.028;5.670;2023-08-30T09:44:58;13.68;;;10.10;;
27558;SDS011;15002;52.028;5.670;2023-08-30T09:47:24;14.93;;;9.85;;
27558;SDS011;15002;52.028;5.670;2023-08-30T09:49:54;13.18;;;10.05;;
27558;SDS011;15002;52.028;5.670;2023-08-30T09:52:20;13.88;;;9.38;;
27558;SDS011;15002;52.028;5.670;2023-08-30T09:54:49;13.52;;;9.85;;
27558;SDS011;15002;52.028;5.670;2023-08-30T09:57:16;11.77;;;9.68;;
27558;SDS011;15002;52.028;5.670;2023-08-30T09:59:42;11.02;;;9.07;;
27558;SDS011;15002;52.028;5.670;2023-08-30T10:02:08;13.35;;;9.85;;
27558;SDS011;15002;52.028;5.670;2023-08-30T10:04:36;11.98;;;9.70;;
27558;SDS011;15002;52.028;5.670;2023-08-30T10:07:04;10.27;;;8.07;;
27558;SDS011;15002;52.028;5.670;2023-08-30T10:09:32;12.48;;;9.18;;
27558;SDS011;15002;52.028;5.670;2023-08-30T10:11:58;11.52;;;9.15;;
27558;SDS011;15002;52.028;5.670;2023-08-30T10:14:26;15.55;;;10.80;;
27558;SDS011;15002;52.028;5.670;2023-08-30T10:16:54;11.18;;;9.35;;
27558;SDS011;15002;52.028;5.670;2023-08-30T10:19:30;13.30;;;10.88;;
27558;SDS011;15002;52.028;5.670;2023-08-30T10:22:06;12.80;;;11.32;;
27558;SDS011;15002;52.028;5.670;2023-08-30T10:24:37;13.90;;;10.95;;
27558;SDS011;15002;52.028;5.670;2023-08-30T10:27:06;14.20;;;11.68;;
27558;SDS011;15002;52.028;5.670;2023-08-30T10:29:34;14.35;;;11.43;;
27558;SDS011;15002;52.028;5.670;2023-08-30T10:32:05;12.70;;;11.40;;
27558;SDS011;15002;52.028;5.670;2023-08-30T10:34:31;12.88;;;11.43;;
27558;SDS011;15002;52.028;5.670;2023-08-30T10:36:59;15.45;;;11.80;;
27558;SDS011;15002;52.028;5.670;2023-08-30T10:42:13;12.95;;;11.35;;
27558;SDS011;15002;52.028;5.670;2023-08-30T10:44:56;12.48;;;11.18;;
27558;SDS011;15002;52.028;5.670;2023-08-30T10:47:24;12.93;;;11.40;;
27558;SDS011;15002;52.028;5.670;2023-08-30T10:49:54;13.45;;;12.02;;
27558;SDS011;15002;52.028;5.670;2023-08-30T10:52:21;12.55;;;11.25;;
27558;SDS011;15002;52.028;5.670;2023-08-30T10:54:52;15.57;;;12.48;;
27558;SDS011;15002;52.028;5.670;2023-08-30T10:57:21;13.80;;;11.85;;
27558;SDS011;15002;52.028;5.670;2023-08-30T11:02:36;12.82;;;10.55;;
27558;SDS011;15002;52.028;5.670;2023-08-30T11:05:03;11.27;;;9.90;;
27558;SDS011;15002;52.028;5.670;2023-08-30T11:07:31;9.65;;;8.70;;
27558;SDS011;15002;52.028;5.670;2023-08-30T11:09:57;9.40;;;8.50;;
27558;SDS011;15002;52.028;5.670;2023-08-30T11:12:23;10.38;;;7.75;;
27558;SDS011;15002;52.028;5.670;2023-08-30T11:14:51;8.25;;;7.43;;
27558;SDS011;15002;52.028;5.670;2023-08-30T11:17:17;7.45;;;6.75;;
27558;SDS011;15002;52.028;5.670;2023-08-30T11:19:44;7.32;;;6.00;;
27558;SDS011;15002;52.028;5.670;2023-08-30T11:22:12;6.13;;;5.53;;
27558;SDS011;15002;52.028;5.670;2023-08-30T11:24:38;6.50;;;5.65;;
27558;SDS011;15002;52.028;5.670;2023-08-30T11:27:04;5.93;;;5.10;;
27558;SDS011;15002;52.028;5.670;2023-08-30T11:29:30;5.13;;;4.63;;
27558;SDS011;15002;52.028;5.670;2023-08-30T11:31:56;4.70;;;4.18;;
27558;SDS011;15002;52.028;5.670;2023-08-30T11:34:21;6.35;;;4.35;;
27558;SDS011;15002;52.028;5.670;2023-08-30T11:36:47;5.38;;;4.88;;
27558;SDS011;15002;52.028;5.670;2023-08-30T11:39:15;6.13;;;4.70;;
27558;SDS011;15002;52.028;5.670;2023-08-30T11:41:44;7.30;;;4.50;;
27558;SDS011;15002;52.028;5.670;2023-08-30T11:44:10;9.13;;;4.68;;
27558;SDS011;15002;52.028;5.670;2023-08-30T11:46:35;6.75;;;4.47;;
27558;SDS011;15002;52.028;5.670;2023-08-30T11:49:01;5.07;;;3.90;;
27558;SDS011;15002;52.028;5.670;2023-08-30T11:51:28;6.18;;;3.42;;
27558;SDS011;15002;52.028;5.670;2023-08-30T11:53:54;7.18;;;2.95;;
27558;SDS011;15002;52.028;5.670;2023-08-30T11:56:21;4.35;;;2.92;;
27558;SDS011;15002;52.028;5.670;2023-08-30T11:58:47;7.07;;;2.80;;
27558;SDS011;15002;52.028;5.670;2023-08-30T12:01:13;5.25;;;3.03;;
27558;SDS011;15002;52.028;5.670;2023-08-30T12:03:39;6.07;;;3.15;;
27558;SDS011;15002;52.028;5.670;2023-08-30T12:06:09;8.00;;;3.13;;
27558;SDS011;15002;52.028;5.670;2023-08-30T12:08:37;5.65;;;3.00;;
27558;SDS011;15002;52.028;5.670;2023-08-30T12:11:03;5.25;;;2.90;;
27558;SDS011;15002;52.028;5.670;2023-08-30T12:13:29;7.57;;;3.22;;
27558;SDS011;15002;52.028;5.670;2023-08-30T12:15:57;7.60;;;3.25;;
27558;SDS011;15002;52.028;5.670;2023-08-30T12:18:24;7.43;;;3.00;;
27558;SDS011;15002;52.028;5.670;2023-08-30T12:23:25;6.10;;;2.92;;
27558;SDS011;15002;52.028;5.670;2023-08-30T12:25:58;6.55;;;3.17;;
27558;SDS011;15002;52.028;5.670;2023-08-30T12:28:32;8.25;;;3.40;;
27558;SDS011;15002;52.028;5.670;2023-08-30T12:31:00;6.25;;;3.25;;
27558;SDS011;15002;52.028;5.670;2023-08-30T12:33:26;8.68;;;3.35;;
27558;SDS011;15002;52.028;5.670;2023-08-30T12:35:55;4.88;;;2.55;;
27558;SDS011;15002;52.028;5.670;2023-08-30T12:38:22;6.68;;;2.75;;
27558;SDS011;15002;52.028;5.670;2023-08-30T12:40:49;8.93;;;2.90;;
27558;SDS011;15002;52.028;5.670;2023-08-30T12:43:18;5.45;;;2.28;;
27558;SDS011;15002;52.028;5.670;2023-08-30T12:45:47;5.05;;;2.67;;
27558;SDS011;15002;52.028;5.670;2023-08-30T12:48:14;8.55;;;2.55;;
27558;SDS011;15002;52.028;5.670;2023-08-30T12:50:41;8.55;;;2.88;;
27558;SDS011;15002;52.028;5.670;2023-08-30T12:53:10;5.10;;;2.47;;
27558;SDS011;15002;52.028;5.670;2023-08-30T12:55:36;6.60;;;2.35;;
27558;SDS011;15002;52.028;5.670;2023-08-30T12:58:05;9.50;;;2.58;;
27558;SDS011;15002;52.028;5.670;2023-08-30T13:00:32;7.50;;;2.50;;
27558;SDS011;15002;52.028;5.670;2023-08-30T13:02:58;10.60;;;2.60;;
27558;SDS011;15002;52.028;5.670;2023-08-30T13:05:24;7.45;;;2.38;;
27558;SDS011;15002;52.028;5.670;2023-08-30T13:07:50;4.72;;;2.33;;
27558;SDS011;15002;52.028;5.670;2023-08-30T13:10:15;7.03;;;2.28;;
27558;SDS011;15002;52.028;5.670;2023-08-30T13:12:42;6.07;;;2.10;;
27558;SDS011;15002;52.028;5.670;2023-08-30T13:15:08;7.88;;;2.60;;
27558;SDS011;15002;52.028;5.670;2023-08-30T13:17:34;4.78;;;1.90;;
27558;SDS011;15002;52.028;5.670;2023-08-30T13:20:00;5.88;;;1.98;;
27558;SDS011;15002;52.028;5.670;2023-08-30T13:22:26;8.02;;;2.17;;
27558;SDS011;15002;52.028;5.670;2023-08-30T13:24:52;7.45;;;2.05;;
27558;SDS011;15002;52.028;5.670;2023-08-30T13:27:18;7.55;;;2.03;;
27558;SDS011;15002;52.028;5.670;2023-08-30T13:29:45;6.05;;;1.80;;
27558;SDS011;15002;52.028;5.670;2023-08-30T13:32:10;4.47;;;1.70;;
27558;SDS011;15002;52.028;5.670;2023-08-30T13:34:36;6.50;;;2.20;;
27558;SDS011;15002;52.028;5.670;2023-08-30T13:37:02;5.63;;;2.03;;
27558;SDS011;15002;52.028;5.670;2023-08-30T13:39:28;6.00;;;1.90;;
27558;SDS011;15002;52.028;5.670;2023-08-30T13:41:54;6.97;;;1.63;;
27558;SDS011;15002;52.028;5.670;2023-08-30T13:44:20;5.13;;;1.88;;
27558;SDS011;15002;52.028;5.670;2023-08-30T13:46:45;4.20;;;1.77;;
27558;SDS011;15002;52.028;5.670;2023-08-30T13:49:14;4.82;;;1.58;;
27558;SDS011;15002;52.028;5.670;2023-08-30T13:51:40;5.32;;;1.98;;
27558;SDS011;15002;52.028;5.670;2023-08-30T13:54:06;7.43;;;1.58;;
27558;SDS011;15002;52.028;5.670;2023-08-30T13:56:32;7.70;;;2.00;;
27558;SDS011;15002;52.028;5.670;2023-08-30T13:58:58;5.53;;;2.15;;
27558;SDS011;15002;52.028;5.670;2023-08-30T14:01:24;5.88;;;1.73;;
27558;SDS011;15002;52.028;5.670;2023-08-30T14:03:50;6.70;;;2.58;;
27558;SDS011;15002;52.028;5.670;2023-08-30T14:06:15;5.50;;;1.85;;
27558;SDS011;15002;52.028;5.670;2023-08-30T14:08:42;6.90;;;1.85;;
27558;SDS011;15002;52.028;5.670;2023-08-30T14:11:08;5.78;;;1.60;;
27558;SDS011;15002;52.028;5.670;2023-08-30T14:13:34;6.07;;;1.60;;
27558;SDS011;15002;52.028;5.670;2023-08-30T14:16:00;7.82;;;1.75;;
27558;SDS011;15002;52.028;5.670;2023-08-30T14:18:26;6.00;;;1.63;;
27558;SDS011;15002;52.028;5.670;2023-08-30T14:20:55;6.88;;;2.00;;
27558;SDS011;15002;52.028;5.670;2023-08-30T14:23:28;6.65;;;2.05;;
27558;SDS011;15002;52.028;5.670;2023-08-30T14:26:12;9.07;;;2.20;;
27558;SDS011;15002;52.028;5.670;2023-08-30T14:28:39;4.20;;;1.75;;
27558;SDS011;15002;52.028;5.670;2023-08-30T14:31:11;3.65;;;1.73;;
27558;SDS011;15002;52.028;5.670;2023-08-30T14:33:41;4.03;;;1.90;;
27558;SDS011;15002;52.028;5.670;2023-08-30T14:36:10;7.07;;;1.90;;
27558;SDS011;15002;52.028;5.670;2023-08-30T14:38:36;6.70;;;1.70;;
27558;SDS011;15002;52.028;5.670;2023-08-30T14:41:02;6.07;;;1.77;;
27558;SDS011;15002;52.028;5.670;2023-08-30T14:43:28;5.35;;;1.88;;
27558;SDS011;15002;52.028;5.670;2023-08-30T14:46:01;4.65;;;1.65;;